Time;durP1;ratioP1;P1;durP2;ratioP2;P2;SDS_P1;SDS_P2;PMS_P1;PMS_P2;Temp;Humidity;BMP_temperature;BMP_pressure;BME280_temperature;BME280_humidity;BME280_pressure;Samples;Min_cycle;Max_cycle;Signal;HPM_P1;HPM_P2
2024/01/03 00:00:33;;;;;;;1.50;1.07;;;;;;;9.53;100.00;97932.97;4977540;28;20196;-68
2024/01/03 00:02:59;;;;;;;2.33;0.90;;;;;;;9.42;100.00;97935.63;4996188;28;20200;-68
2024/01/03 00:05:36;;;;;;;1.53;1.00;;;;;;;9.39;100.00;97931.56;4984047;28;20187;-68
2024/01/03 00:08:04;;;;;;;2.87;1.20;;;;;;;9.34;100.00;97933.69;4999408;28;20211;-69
2024/01/03 00:10:57;;;;;;;4.50;1.20;;;;;;;9.32;100.00;97941.50;4981137;28;20696;-70
2024/01/03 00:13:29;;;;;;;1.97;1.20;;;;;;;9.41;100.00;97946.81;5026810;28;20189;-71
2024/01/03 00:16:13;;;;;;;1.70;1.10;;;;;;;9.43;100.00;97937.25;5014369;28;20189;-72
2024/01/03 00:18:47;;;;;;;1.87;0.90;;;;;;;9.26;100.00;97944.59;5014360;28;20214;-71
2024/01/03 00:21:19;;;;;;;1.50;1.00;;;;;;;9.36;100.00;97948.03;4995980;28;20361;-70
2024/01/03 00:24:08;;;;;;;2.37;1.10;;;;;;;9.39;100.00;97952.09;4993810;28;20172;-71
2024/01/03 00:26:35;;;;;;;3.40;1.00;;;;;;;9.44;100.00;97947.38;4976219;28;20222;-70
2024/01/03 00:29:04;;;;;;;1.10;0.93;;;;;;;9.44;100.00;97967.09;5009874;28;20605;-70
2024/01/03 00:31:43;;;;;;;4.17;1.40;;;;;;;9.51;100.00;97961.31;4977379;28;20649;-70
2024/01/03 00:34:21;;;;;;;4.50;1.17;;;;;;;9.55;100.00;97955.91;4987457;28;20184;-71
2024/01/03 00:36:53;;;;;;;3.77;0.93;;;;;;;9.55;100.00;97961.88;4993067;28;20203;-69
2024/01/03 00:39:22;;;;;;;2.07;1.00;;;;;;;9.64;100.00;97966.22;5008765;28;20553;-69
2024/01/03 00:41:47;;;;;;;5.37;1.17;;;;;;;9.56;100.00;97968.63;4997775;28;20745;-71
2024/01/03 00:44:12;;;;;;;1.47;1.10;;;;;;;9.42;100.00;97980.06;4997639;28;20255;-72
2024/01/03 00:46:38;;;;;;;1.10;0.90;;;;;;;9.28;100.00;97975.25;5007792;28;20516;-71
2024/01/03 00:49:03;;;;;;;5.43;1.17;;;;;;;9.22;100.00;97979.16;4993087;28;20203;-71
2024/01/03 00:51:28;;;;;;;2.27;0.80;;;;;;;9.22;100.00;97994.53;4994607;28;20261;-71
2024/01/03 00:53:53;;;;;;;4.23;1.40;;;;;;;9.18;100.00;98008.56;5009010;28;20187;-71
2024/01/03 00:56:19;;;;;;;1.43;0.93;;;;;;;9.11;100.00;98004.88;5009749;28;20540;-72
2024/01/03 00:58:45;;;;;;;1.00;0.70;;;;;;;9.03;100.00;98001.19;4993978;28;20562;-71
2024/01/03 01:01:10;;;;;;;1.57;1.10;;;;;;;8.94;100.00;98004.47;5002130;28;20318;-70
2024/01/03 01:03:36;;;;;;;2.70;1.00;;;;;;;9.01;100.00;98007.38;5000253;28;20179;-71
2024/01/03 01:06:01;;;;;;;3.57;1.17;;;;;;;8.98;100.00;98010.19;4994771;28;20180;-70
2024/01/03 01:08:26;;;;;;;3.97;0.90;;;;;;;8.94;100.00;98004.47;4993376;28;20233;-70
2024/01/03 01:10:52;;;;;;;2.27;0.90;;;;;;;8.87;100.00;98009.31;4977674;28;20355;-70
2024/01/03 01:13:17;;;;;;;1.23;0.70;;;;;;;8.99;100.00;98017.78;4991164;28;20290;-71
2024/01/03 01:15:42;;;;;;;1.23;1.00;;;;;;;8.95;100.00;98015.56;4994152;28;20274;-70
2024/01/03 01:18:08;;;;;;;2.27;0.70;;;;;;;8.93;100.00;98022.56;4993428;28;20183;-71
2024/01/03 01:20:33;;;;;;;1.80;1.43;;;;;;;8.92;100.00;98015.81;4987656;28;20747;-71
2024/01/03 01:22:58;;;;;;;3.83;0.93;;;;;;;8.93;100.00;98020.00;4991989;28;20210;-73
2024/01/03 01:25:23;;;;;;;2.77;1.30;;;;;;;8.93;100.00;98023.41;4993764;28;20196;-71
2024/01/03 01:27:49;;;;;;;1.13;0.70;;;;;;;8.94;100.00;98021.63;4991912;28;20662;-71
2024/01/03 01:30:14;;;;;;;2.97;1.03;;;;;;;8.88;100.00;98033.19;4985533;28;20178;-70
2024/01/03 01:32:39;;;;;;;2.13;0.90;;;;;;;8.86;100.00;98029.94;4996955;28;20200;-71
2024/01/03 01:35:05;;;;;;;2.73;1.10;;;;;;;8.92;100.00;98026.06;5008875;28;20266;-71
2024/01/03 01:37:30;;;;;;;2.93;1.20;;;;;;;8.93;100.00;98025.13;4992739;28;20566;-71
2024/01/03 01:39:56;;;;;;;5.10;1.17;;;;;;;8.89;100.00;98042.50;4993809;28;20263;-71
2024/01/03 01:42:22;;;;;;;3.30;0.90;;;;;;;8.90;100.00;98044.13;4999356;28;20760;-70
2024/01/03 01:44:48;;;;;;;2.43;0.90;;;;;;;8.92;100.00;98038.88;4993832;28;20183;-71
2024/01/03 01:47:14;;;;;;;2.93;0.80;;;;;;;8.88;100.00;98059.66;4992755;28;20187;-70
2024/01/03 01:49:40;;;;;;;2.17;0.77;;;;;;;8.94;100.00;98062.66;4993606;28;20175;-69
2024/01/03 01:52:08;;;;;;;1.70;1.00;;;;;;;8.90;100.00;98051.03;4997683;28;20605;-70
2024/01/03 01:54:34;;;;;;;3.50;0.67;;;;;;;8.89;100.00;98060.47;4992243;28;20220;-71
2024/01/03 01:56:59;;;;;;;2.37;0.90;;;;;;;8.86;100.00;98061.50;4991525;28;20631;-70
2024/01/03 01:59:25;;;;;;;4.83;1.13;;;;;;;8.86;100.00;98061.50;4993286;28;20218;-71
2024/01/03 03:50:07;;;;;;;5.83;1.30;;;;;;;8.66;100.00;98058.00;4978268;28;20277;-64
2024/01/03 03:52:32;;;;;;;3.40;1.93;;;;;;;8.71;100.00;98058.44;5014126;28;20195;-64
2024/01/03 03:54:57;;;;;;;6.73;1.50;;;;;;;8.65;100.00;98061.47;5017455;28;20179;-64
2024/01/03 03:57:22;;;;;;;8.33;1.73;;;;;;;8.66;100.00;98067.44;5009599;28;20175;-64
2024/01/03 03:59:48;;;;;;;5.97;1.50;;;;;;;8.67;100.00;98059.63;5011225;28;20594;-66
2024/01/03 04:02:13;;;;;;;7.97;1.40;;;;;;;8.67;100.00;98062.19;5007967;28;20237;-65
2024/01/03 04:04:38;;;;;;;6.23;2.60;;;;;;;8.69;100.00;98064.63;5026422;28;20286;-64
2024/01/03 04:07:04;;;;;;;5.80;1.43;;;;;;;8.68;100.00;98070.66;5009194;28;20182;-64
2024/01/03 04:09:29;;;;;;;6.97;2.13;;;;;;;8.70;100.00;98077.31;5010823;28;20643;-65
2024/01/03 04:11:55;;;;;;;5.93;1.60;;;;;;;8.69;100.00;98072.31;5005039;28;20226;-64
2024/01/03 04:14:20;;;;;;;5.03;1.57;;;;;;;8.70;100.00;98085.00;5008904;28;20183;-64
2024/01/03 04:16:46;;;;;;;6.27;1.97;;;;;;;8.67;100.00;98081.84;5025244;28;20175;-64
2024/01/03 04:19:11;;;;;;;5.47;1.77;;;;;;;8.65;100.00;98089.69;5011038;28;20214;-63
2024/01/03 04:21:36;;;;;;;5.13;1.43;;;;;;;8.70;100.00;98086.75;4999362;28;20624;-63
2024/01/03 04:24:02;;;;;;;5.90;1.80;;;;;;;8.74;100.00;98085.56;5009721;28;20187;-63
2024/01/03 04:26:28;;;;;;;6.63;2.00;;;;;;;8.62;100.00;98086.53;5025252;28;20199;-64
2024/01/03 04:28:53;;;;;;;7.00;1.70;;;;;;;8.63;100.00;98088.97;5011215;28;20179;-65
2024/01/03 04:31:19;;;;;;;6.10;1.87;;;;;;;8.60;100.00;98091.78;4985791;28;20721;-64
2024/01/03 04:33:44;;;;;;;7.63;2.20;;;;;;;8.65;100.00;98087.09;5007718;28;20179;-63
2024/01/03 04:36:11;;;;;;;7.57;2.10;;;;;;;8.67;100.00;98092.94;5010522;28;20183;-64
2024/01/03 04:38:36;;;;;;;10.13;2.30;;;;;;;8.61;100.00;98098.53;5026037;28;20339;-64
2024/01/03 04:41:01;;;;;;;9.03;2.40;;;;;;;8.60;100.00;98099.47;5004501;28;20309;-63
2024/01/03 04:43:27;;;;;;;7.03;1.77;;;;;;;8.66;100.00;98093.06;5011551;28;20730;-63
2024/01/03 04:45:52;;;;;;;11.93;2.77;;;;;;;8.69;100.00;98073.09;5012123;28;20171;-63
2024/01/03 04:48:18;;;;;;;7.00;1.80;;;;;;;8.63;100.00;98090.72;5014559;28;20214;-63
2024/01/03 04:50:44;;;;;;;5.00;1.60;;;;;;;8.61;100.00;98090.03;5008344;28;20245;-64
2024/01/03 04:53:09;;;;;;;8.00;1.60;;;;;;;8.55;100.00;98076.75;5023414;28;20179;-67
2024/01/03 04:55:34;;;;;;;8.83;2.33;;;;;;;8.55;100.00;98079.31;5012423;28;20198;-64
2024/01/03 04:57:59;;;;;;;11.03;2.40;;;;;;;8.60;100.00;98078.97;5028937;28;20187;-64
2024/01/03 05:00:25;;;;;;;6.37;2.00;;;;;;;8.56;100.00;98078.41;5004151;28;20234;-63
2024/01/03 05:02:52;;;;;;;9.43;2.27;;;;;;;8.45;100.00;98086.09;5000844;28;20233;-63
2024/01/03 05:05:17;;;;;;;7.57;2.00;;;;;;;8.54;100.00;98090.50;5011954;28;20642;-63
2024/01/03 05:07:42;;;;;;;14.23;3.40;;;;;;;8.43;100.00;98080.25;5013823;28;20213;-63
2024/01/03 05:10:11;;;;;;;9.17;2.30;;;;;;;8.49;100.00;98079.00;5004011;28;20565;-63
2024/01/03 05:12:37;;;;;;;4.63;1.80;;;;;;;8.46;100.00;98082.63;5012136;28;20272;-63
2024/01/03 05:15:04;;;;;;;9.47;2.50;;;;;;;8.40;100.00;98078.75;5013860;28;20265;-62
2024/01/03 05:17:29;;;;;;;10.00;2.80;;;;;;;8.35;100.00;98087.75;5011744;28;20217;-64
2024/01/03 05:19:56;;;;;;;6.13;2.57;;;;;;;8.40;100.00;98083.88;5013446;28;20174;-64
2024/01/03 05:22:21;;;;;;;8.17;2.33;;;;;;;8.54;100.00;98095.63;5018538;28;20230;-63
2024/01/03 05:24:46;;;;;;;10.57;2.10;;;;;;;8.61;100.00;98088.28;5028232;28;20182;-63
2024/01/03 05:27:11;;;;;;;10.97;2.20;;;;;;;8.60;100.00;98091.78;5013008;28;20650;-63
2024/01/03 05:29:37;;;;;;;5.70;2.03;;;;;;;8.68;100.00;98093.75;5013466;28;20179;-64
2024/01/03 05:32:02;;;;;;;7.63;2.20;;;;;;;8.81;100.00;98091.03;5008208;28;20289;-64
2024/01/03 05:34:27;;;;;;;14.53;3.37;;;;;;;8.93;100.00;98091.78;5013210;28;20552;-64
2024/01/03 05:36:52;;;;;;;9.83;2.73;;;;;;;9.01;100.00;98085.13;5012604;28;20174;-64
2024/01/03 05:39:18;;;;;;;10.57;2.67;;;;;;;9.07;100.00;98088.13;5012824;28;20190;-64
2024/01/03 05:41:43;;;;;;;8.83;2.27;;;;;;;9.04;100.00;98091.75;5004746;28;20602;-64
2024/01/03 05:44:08;;;;;;;10.90;2.50;;;;;;;9.04;100.00;98100.28;5016533;28;20179;-64
2024/01/03 05:46:33;;;;;;;8.80;2.23;;;;;;;9.04;100.00;98090.00;5027945;28;20183;-64
2024/01/03 05:48:59;;;;;;;8.40;2.27;;;;;;;9.00;100.00;98088.59;5013053;28;20224;-64
2024/01/03 05:51:24;;;;;;;5.67;2.23;;;;;;;8.89;100.00;98093.78;5012629;28;20237;-64
2024/01/03 05:53:49;;;;;;;11.43;2.27;;;;;;;8.78;100.00;98097.22;5017457;28;20191;-64
2024/01/03 05:56:15;;;;;;;12.27;2.63;;;;;;;8.72;100.00;98098.50;5012514;28;20197;-63
2024/01/03 05:58:44;;;;;;;11.27;2.30;;;;;;;8.75;100.00;98092.31;5027884;28;20604;-65
2024/01/03 06:01:10;;;;;;;8.43;1.97;;;;;;;8.83;100.00;98084.84;5019878;28;20226;-67
2024/01/03 06:03:35;;;;;;;10.50;2.23;;;;;;;8.83;100.00;98091.72;5027112;28;20189;-64
2024/01/03 06:06:00;;;;;;;7.13;2.20;;;;;;;8.74;100.00;98092.47;5012310;28;20633;-66
2024/01/03 06:08:26;;;;;;;11.57;2.70;;;;;;;8.58;100.00;98109.03;5027589;28;20229;-64
2024/01/03 06:10:51;;;;;;;10.40;2.73;;;;;;;8.59;100.00;98109.84;5008855;28;20229;-64
2024/01/03 06:13:17;;;;;;;7.73;1.93;;;;;;;8.45;100.00;98096.34;5010203;28;20276;-64
2024/01/03 06:15:42;;;;;;;12.13;2.53;;;;;;;8.54;100.00;98092.28;5012978;28;20194;-64
2024/01/03 06:18:08;;;;;;;12.03;3.07;;;;;;;8.51;100.00;98103.56;5012070;28;20187;-64
2024/01/03 06:20:33;;;;;;;8.80;1.97;;;;;;;8.64;100.00;98100.06;5004175;28;20672;-64
2024/01/03 06:22:58;;;;;;;6.07;1.90;;;;;;;8.64;100.00;98093.16;5022806;28;20174;-64
2024/01/03 06:25:23;;;;;;;10.10;2.43;;;;;;;8.64;100.00;98095.72;5012392;28;20618;-64
2024/01/03 06:27:49;;;;;;;8.57;2.20;;;;;;;8.72;100.00;98102.84;5026814;28;20182;-64
2024/01/03 06:30:14;;;;;;;8.10;2.40;;;;;;;8.67;100.00;98095.50;5003598;28;20178;-64
2024/01/03 06:32:39;;;;;;;7.60;2.30;;;;;;;8.66;100.00;98093.88;5001429;28;20266;-64
2024/01/03 06:35:05;;;;;;;9.70;2.27;;;;;;;8.59;100.00;98097.84;5012144;28;20187;-63
2024/01/03 06:37:31;;;;;;;10.10;1.80;;;;;;;8.46;100.00;98090.31;5009653;28;20265;-66
2024/01/03 06:39:57;;;;;;;6.23;1.83;;;;;;;8.49;100.00;98097.75;5012303;28;20259;-65
2024/01/03 06:42:22;;;;;;;9.03;2.77;;;;;;;8.45;100.00;98100.66;5018581;28;20225;-64
2024/01/03 06:44:47;;;;;;;8.27;2.47;;;;;;;8.30;100.00;98107.75;5012044;28;20171;-64
2024/01/03 06:47:13;;;;;;;6.63;1.80;;;;;;;8.29;100.00;98109.50;5010867;28;20233;-63
2024/01/03 06:49:38;;;;;;;6.70;1.93;;;;;;;8.31;100.00;98107.66;5010644;28;20223;-64
2024/01/03 06:52:03;;;;;;;8.70;2.67;;;;;;;8.29;100.00;98117.19;5017138;28;20241;-63
2024/01/03 06:54:29;;;;;;;5.57;1.70;;;;;;;8.22;100.00;98122.00;4999971;28;20179;-63
2024/01/03 06:56:54;;;;;;;6.60;1.60;;;;;;;8.23;100.00;98120.22;5026225;28;20186;-63
2024/01/03 06:59:20;;;;;;;9.93;2.07;;;;;;;8.27;100.00;98115.69;5026864;28;20278;-63
2024/01/03 07:01:45;;;;;;;5.97;1.53;;;;;;;8.33;100.00;98116.03;5000631;28;20317;-62
2024/01/03 07:04:10;;;;;;;3.60;1.60;;;;;;;8.44;100.00;98109.28;5008079;28;20298;-64
2024/01/03 07:06:35;;;;;;;7.60;2.03;;;;;;;8.47;100.00;98102.19;5025729;28;20198;-63
2024/01/03 07:09:01;;;;;;;5.37;1.93;;;;;;;8.41;100.00;98107.78;5011650;28;20640;-63
2024/01/03 07:11:26;;;;;;;8.50;1.90;;;;;;;8.42;100.00;98113.69;5011640;28;20229;-63
2024/01/03 07:13:51;;;;;;;9.83;2.50;;;;;;;8.43;100.00;98116.13;5016427;28;20186;-64
2024/01/03 07:16:18;;;;;;;7.67;2.57;;;;;;;8.46;100.00;98110.81;5011159;28;20626;-65
2024/01/03 07:18:43;;;;;;;8.73;2.77;;;;;;;8.47;100.00;98106.50;5011685;28;20232;-65
2024/01/03 07:21:08;;;;;;;7.97;2.30;;;;;;;8.55;100.00;98116.97;5008084;28;20265;-67
2024/01/03 07:23:34;;;;;;;7.63;2.63;;;;;;;8.55;100.00;98109.28;5003312;28;20631;-63
2024/01/03 07:25:59;;;;;;;10.30;2.73;;;;;;;8.50;100.00;98109.63;4998516;28;20345;-63
2024/01/03 07:28:24;;;;;;;12.63;2.80;;;;;;;8.51;100.00;98102.78;5019423;28;20182;-63
2024/01/03 07:30:49;;;;;;;12.57;2.63;;;;;;;8.62;100.00;98112.16;4994008;28;20674;-64
2024/01/03 07:33:15;;;;;;;10.20;3.03;;;;;;;8.68;100.00;98109.13;4990170;28;20187;-64
2024/01/03 07:35:40;;;;;;;11.07;2.90;;;;;;;8.80;100.00;98115.84;4991727;28;20564;-65
2024/01/03 07:38:05;;;;;;;6.50;2.13;;;;;;;8.75;100.00;98117.97;4990843;28;20191;-64
2024/01/03 07:40:31;;;;;;;7.93;2.00;;;;;;;8.84;100.00;98116.41;4983803;28;20313;-65
2024/01/03 07:42:56;;;;;;;7.20;2.07;;;;;;;8.80;100.00;98120.16;5014158;28;20179;-65
2024/01/03 07:45:21;;;;;;;7.00;1.90;;;;;;;8.91;100.00;98114.19;5006573;28;20198;-64
2024/01/03 07:47:47;;;;;;;5.00;1.40;;;;;;;8.83;100.00;98114.78;5000471;28;20564;-64
2024/01/03 07:50:12;;;;;;;7.67;2.10;;;;;;;8.85;100.00;98120.63;4995659;28;20219;-66
2024/01/03 07:52:37;;;;;;;6.17;1.23;;;;;;;8.86;100.00;98120.50;4989912;28;20179;-65
2024/01/03 07:55:03;;;;;;;4.60;1.40;;;;;;;8.88;100.00;98112.66;4991731;28;20632;-65
2024/01/03 07:57:28;;;;;;;3.30;1.20;;;;;;;8.81;100.00;98114.13;4989754;28;20183;-64
2024/01/03 07:59:54;;;;;;;2.50;1.13;;;;;;;8.91;100.00;98115.00;4989570;28;20191;-64
2024/01/03 08:02:19;;;;;;;5.20;1.30;;;;;;;8.96;100.00;98110.31;4994673;28;20755;-64
2024/01/03 08:04:44;;;;;;;4.97;1.53;;;;;;;8.93;100.00;98118.28;4988710;28;20263;-64
2024/01/03 08:07:09;;;;;;;3.43;1.47;;;;;;;8.90;100.00;98121.06;4987394;28;20192;-65
2024/01/03 08:09:37;;;;;;;3.43;1.40;;;;;;;8.83;100.00;98120.75;4991517;28;20171;-64
2024/01/03 08:12:04;;;;;;;4.53;1.83;;;;;;;8.82;100.00;98123.41;4999359;28;20581;-65
2024/01/03 08:14:30;;;;;;;5.03;1.70;;;;;;;8.81;100.00;98112.34;4986083;28;20214;-64
2024/01/03 08:16:56;;;;;;;5.83;1.53;;;;;;;8.81;100.00;98114.91;4984862;28;20199;-64
2024/01/03 08:19:21;;;;;;;2.40;1.10;;;;;;;8.85;100.00;98120.63;4986902;28;20188;-64
2024/01/03 08:21:46;;;;;;;2.60;1.60;;;;;;;8.83;100.00;98101.97;5000893;28;20242;-65
2024/01/03 08:24:12;;;;;;;3.37;1.30;;;;;;;8.85;100.00;98098.34;5018332;28;20189;-63
2024/01/03 08:26:37;;;;;;;3.97;1.80;;;;;;;8.78;100.00;98084.41;5021066;28;20265;-64
2024/01/03 08:29:02;;;;;;;3.57;1.33;;;;;;;8.70;100.00;98095.25;5031976;28;20183;-63
2024/01/03 08:31:27;;;;;;;4.87;1.90;;;;;;;8.71;100.00;98096.88;4983526;28;20737;-63
2024/01/03 08:33:53;;;;;;;5.20;1.57;;;;;;;8.74;100.00;98087.34;5014923;28;20278;-65
2024/01/03 08:36:18;;;;;;;2.90;1.30;;;;;;;8.73;100.00;98086.50;5029124;28;20191;-65
2024/01/03 08:38:43;;;;;;;5.90;1.53;;;;;;;8.81;100.00;98098.72;5030145;28;20190;-64
2024/01/03 08:41:13;;;;;;;5.20;1.57;;;;;;;8.80;100.00;98084.28;5010352;28;20301;-67
2024/01/03 08:43:39;;;;;;;4.93;1.67;;;;;;;8.86;100.00;98099.19;5029268;28;20175;-64
2024/01/03 08:46:04;;;;;;;3.70;1.37;;;;;;;8.86;100.00;98091.47;5013675;28;20214;-64
2024/01/03 08:48:29;;;;;;;2.43;1.30;;;;;;;8.85;100.00;98092.41;5011807;28;20244;-64
2024/01/03 08:50:55;;;;;;;3.00;1.07;;;;;;;8.92;100.00;98093.56;5010016;28;20247;-64
2024/01/03 08:53:20;;;;;;;3.63;1.60;;;;;;;9.04;100.00;98099.44;5021720;28;20186;-64
2024/01/03 08:55:45;;;;;;;2.70;1.57;;;;;;;9.25;100.00;98107.16;5010764;28;20186;-65
2024/01/03 08:58:11;;;;;;;3.73;1.30;;;;;;;9.44;100.00;98103.91;5009760;28;20265;-65
2024/01/03 09:00:36;;;;;;;2.20;0.97;;;;;;;9.89;100.00;98102.00;5002026;28;20258;-64
2024/01/03 09:03:02;;;;;;;4.07;1.10;;;;;;;10.33;100.00;98105.13;5006382;28;20188;-64
2024/01/03 09:05:27;;;;;;;3.97;1.67;;;;;;;10.74;100.00;98093.06;5010863;28;20178;-65
2024/01/03 09:07:52;;;;;;;3.30;0.90;;;;;;;11.18;100.00;98097.78;5026421;28;20832;-64
2024/01/03 09:10:18;;;;;;;5.57;1.63;;;;;;;11.09;100.00;98096.84;5000534;28;20183;-64
2024/01/03 09:12:43;;;;;;;2.70;1.07;;;;;;;10.98;100.00;98091.84;5009642;28;20213;-64
2024/01/03 09:15:08;;;;;;;4.27;1.30;;;;;;;11.55;100.00;98091.13;5010966;28;20175;-65
2024/01/03 09:17:34;;;;;;;2.03;1.23;;;;;;;12.61;100.00;98090.78;5013120;28;20221;-65
2024/01/03 09:19:59;;;;;;;4.47;1.20;;;;;;;12.78;100.00;98098.69;5017068;28;20191;-64
2024/01/03 09:22:24;;;;;;;2.50;1.30;;;;;;;12.47;100.00;98099.84;5014976;28;20234;-64
2024/01/03 09:24:49;;;;;;;3.00;1.03;;;;;;;11.68;100.00;98096.75;5008465;28;20227;-65
2024/01/03 09:27:15;;;;;;;4.50;1.20;;;;;;;11.05;100.00;98102.41;5008672;28;20179;-64
2024/01/03 09:29:41;;;;;;;4.13;1.33;;;;;;;10.89;100.00;98097.78;5003445;28;20236;-63
2024/01/03 09:32:07;;;;;;;2.70;0.73;;;;;;;10.87;100.00;98110.00;5001134;28;20313;-62
2024/01/03 09:34:37;;;;;;;3.37;1.20;;;;;;;11.40;100.00;98103.56;4993075;28;20210;-63
2024/01/03 09:37:03;;;;;;;4.37;1.23;;;;;;;12.04;100.00;98116.72;4992863;28;20617;-63
2024/01/03 09:39:28;;;;;;;3.67;1.30;;;;;;;12.87;100.00;98103.75;4991686;28;20210;-63
2024/01/03 09:41:53;;;;;;;3.97;1.60;;;;;;;13.20;100.00;98118.75;4997020;28;20253;-63
2024/01/03 09:44:19;;;;;;;3.53;1.57;;;;;;;12.59;100.00;98121.88;4993712;28;20237;-64
2024/01/03 09:46:48;;;;;;;4.93;1.37;;;;;;;12.65;100.00;98127.41;4993003;28;20187;-64
2024/01/03 09:49:14;;;;;;;5.77;1.93;;;;;;;12.72;100.00;98126.69;4990220;28;20196;-64
2024/01/03 09:51:40;;;;;;;6.80;1.40;;;;;;;13.26;100.00;98128.47;4985181;28;20318;-62
2024/01/03 09:54:08;;;;;;;4.67;1.30;;;;;;;13.60;100.00;98126.97;4995194;28;20190;-63
2024/01/03 09:56:37;;;;;;;4.70;1.60;;;;;;;13.74;100.00;98125.59;4991347;28;20187;-62
2024/01/03 09:59:02;;;;;;;4.80;1.90;;;;;;;14.38;100.00;98136.41;5008159;28;20607;-64
2024/01/03 10:01:27;;;;;;;4.97;1.77;;;;;;;14.28;100.00;98136.53;4983201;28;20243;-64
2024/01/03 10:03:53;;;;;;;4.90;2.07;;;;;;;14.56;99.37;98141.47;4994288;28;20622;-64
2024/01/03 10:06:18;;;;;;;4.63;1.30;;;;;;;14.26;97.99;98137.66;4992282;28;20179;-64
2024/01/03 10:08:57;;;;;;;3.60;1.43;;;;;;;13.97;99.76;98144.78;4993024;28;20179;-63
2024/01/03 10:11:23;;;;;;;4.30;1.80;;;;;;;13.20;100.00;98150.53;4977923;28;20314;-65
2024/01/03 10:13:52;;;;;;;7.00;2.03;;;;;;;12.83;100.00;98148.09;4996447;28;20211;-64
2024/01/03 10:16:28;;;;;;;7.00;1.90;;;;;;;12.21;100.00;98152.06;4992125;28;20194;-64
2024/01/03 10:19:17;;;;;;;5.37;2.03;;;;;;;11.98;100.00;98151.59;4978848;28;20198;-62
2024/01/03 10:21:50;;;;;;;6.20;1.70;;;;;;;11.79;100.00;98148.13;4993297;28;20353;-63
2024/01/03 10:24:20;;;;;;;5.30;1.90;;;;;;;11.68;100.00;98147.44;4991581;28;20572;-63
2024/01/03 10:26:46;;;;;;;8.43;1.93;;;;;;;11.72;100.00;98146.22;4989956;28;20175;-63
2024/01/03 10:29:14;;;;;;;4.43;1.60;;;;;;;11.86;100.00;98153.50;5005536;28;20218;-64
2024/01/03 10:31:40;;;;;;;4.40;1.30;;;;;;;11.89;100.00;98163.53;4985715;28;20227;-64
2024/01/03 10:34:08;;;;;;;6.90;2.20;;;;;;;12.08;100.00;98161.88;4987688;28;20191;-64
2024/01/03 10:36:34;;;;;;;5.63;1.60;;;;;;;12.17;100.00;98165.38;4991366;28;20222;-63
2024/01/03 10:39:02;;;;;;;5.07;1.97;;;;;;;12.11;100.00;98157.25;5007430;28;20219;-63
2024/01/03 10:41:29;;;;;;;5.40;1.80;;;;;;;12.13;100.00;98146.00;4990114;28;20248;-63
2024/01/03 10:43:58;;;;;;;5.90;1.53;;;;;;;12.18;100.00;98160.09;4991029;28;20202;-63
2024/01/03 10:46:25;;;;;;;6.33;1.50;;;;;;;12.29;100.00;98156.50;4990025;28;20188;-64
2024/01/03 10:48:50;;;;;;;5.17;1.87;;;;;;;12.10;100.00;98147.09;4991784;28;20207;-63
2024/01/03 10:51:18;;;;;;;4.43;1.33;;;;;;;12.06;100.00;98162.03;4982887;28;20249;-64
2024/01/03 10:53:45;;;;;;;3.83;1.40;;;;;;;12.08;100.00;98157.56;4990144;28;20187;-64
2024/01/03 10:56:10;;;;;;;4.50;1.10;;;;;;;12.18;100.00;98159.25;4991672;28;20191;-64
2024/01/03 10:58:39;;;;;;;6.37;1.90;;;;;;;12.23;100.00;98167.38;5007215;28;20290;-64
2024/01/03 11:01:45;;;;;;;5.27;1.53;;;;;;;12.13;100.00;98162.28;4982420;28;20227;-64
2024/01/03 11:04:28;;;;;;;11.30;1.93;;;;;;;12.06;100.00;98153.50;4983645;28;20195;-61
2024/01/03 11:07:05;;;;;;;4.93;1.57;;;;;;;11.76;100.00;98156.09;4983421;28;20183;-63
2024/01/03 11:09:31;;;;;;;4.73;1.47;;;;;;;11.61;100.00;98166.03;5000777;28;20179;-60
2024/01/03 11:12:07;;;;;;;7.07;1.93;;;;;;;11.57;100.00;98163.88;4988898;28;20674;-61
2024/01/03 11:14:33;;;;;;;5.87;1.60;;;;;;;11.68;100.00;98173.22;4986462;28;20618;-61
2024/01/03 11:16:58;;;;;;;9.73;1.87;;;;;;;11.82;100.00;98159.91;4986455;28;20210;-61
2024/01/03 11:19:33;;;;;;;6.73;1.60;;;;;;;11.85;100.00;98157.03;4989930;28;20266;-60
2024/01/03 11:22:01;;;;;;;6.37;3.17;;;;;;;11.73;100.00;98181.31;4990336;28;20214;-61
2024/01/03 11:24:26;;;;;;;5.63;1.93;;;;;;;11.69;100.00;98177.41;4985884;28;20190;-62
2024/01/03 11:26:52;;;;;;;5.03;1.77;;;;;;;11.72;100.00;98175.38;4985285;28;20171;-61
2024/01/03 11:29:35;;;;;;;6.43;1.40;;;;;;;11.76;100.00;98163.84;4989797;28;20191;-61
2024/01/03 11:32:04;;;;;;;5.60;2.00;;;;;;;11.67;100.00;98159.53;4991725;28;20571;-61
2024/01/03 11:34:47;;;;;;;7.83;2.47;;;;;;;11.76;100.00;98158.69;4987881;28;20221;-62
2024/01/03 11:37:18;;;;;;;4.60;1.23;;;;;;;11.84;100.00;98147.69;4990445;28;20215;-61
2024/01/03 11:39:52;;;;;;;5.70;1.93;;;;;;;11.79;100.00;98153.28;4984933;28;20184;-61
2024/01/03 11:42:38;;;;;;;3.50;1.60;;;;;;;11.78;100.00;98158.53;4989926;28;20234;-61
2024/01/03 11:45:14;;;;;;;6.47;1.97;;;;;;;11.85;100.00;98157.03;4994810;28;20713;-62
2024/01/03 11:47:44;;;;;;;5.20;2.17;;;;;;;11.81;100.00;98158.28;4979695;28;20244;-63
2024/01/03 11:50:12;;;;;;;8.87;2.13;;;;;;;11.83;100.00;98158.94;4982146;28;20223;-63
2024/01/03 11:52:44;;;;;;;5.70;2.20;;;;;;;11.63;100.00;98161.56;4992640;28;20254;-63
2024/01/03 11:55:11;;;;;;;9.20;2.10;;;;;;;11.70;100.00;98158.44;4994043;28;20238;-65
2024/01/03 11:57:41;;;;;;;5.07;1.97;;;;;;;11.67;100.00;98156.13;4977953;28;20180;-61
2024/01/03 12:00:08;;;;;;;6.33;1.60;;;;;;;11.62;100.00;98156.53;4978759;28;20203;-63
2024/01/03 12:02:34;;;;;;;4.30;1.40;;;;;;;11.64;100.00;98146.91;5003506;28;20286;-61
2024/01/03 12:05:01;;;;;;;4.00;1.53;;;;;;;11.59;100.00;98136.22;4995293;28;20275;-61
2024/01/03 12:07:28;;;;;;;4.07;1.30;;;;;;;11.55;100.00;98138.25;5009573;28;20226;-61
2024/01/03 12:09:55;;;;;;;3.83;1.37;;;;;;;11.46;100.00;98150.19;4993059;28;20274;-61
2024/01/03 12:12:20;;;;;;;5.53;1.53;;;;;;;11.35;100.00;98142.63;4997342;28;20218;-61
2024/01/03 12:14:53;;;;;;;4.57;1.50;;;;;;;11.09;100.00;98145.75;4994723;28;20202;-62
2024/01/03 12:17:29;;;;;;;6.93;1.80;;;;;;;11.01;100.00;98142.22;4994179;28;20180;-63
2024/01/03 12:20:06;;;;;;;7.70;1.87;;;;;;;10.99;100.00;98144.94;4994853;28;20237;-62
2024/01/03 12:22:31;;;;;;;6.53;2.13;;;;;;;10.96;100.00;98146.00;4983693;28;20238;-62
2024/01/03 12:24:56;;;;;;;4.43;2.00;;;;;;;10.97;100.00;98147.63;4993904;28;20184;-62
2024/01/03 12:27:23;;;;;;;8.93;1.93;;;;;;;10.87;100.00;98144.22;4994184;28;20553;-61
2024/01/03 12:29:49;;;;;;;4.00;1.50;;;;;;;10.87;100.00;98141.66;4993323;28;20180;-62
2024/01/03 12:32:15;;;;;;;6.80;2.30;;;;;;;10.95;100.00;98131.53;4952489;28;20257;-63
2024/01/03 12:34:41;;;;;;;6.07;1.63;;;;;;;10.98;100.00;98136.38;4990013;28;20202;-62
2024/01/03 12:37:07;;;;;;;6.17;1.83;;;;;;;11.16;100.00;98125.41;4971106;28;20675;-62
2024/01/03 12:39:36;;;;;;;8.03;2.43;;;;;;;11.29;100.00;98128.53;4992747;28;20187;-62
2024/01/03 12:42:08;;;;;;;5.53;1.80;;;;;;;11.51;100.00;98131.78;4998473;28;20237;-63
2024/01/03 12:44:34;;;;;;;6.17;1.80;;;;;;;11.73;100.00;98125.50;4994526;28;20207;-62
2024/01/03 12:46:59;;;;;;;8.80;2.10;;;;;;;11.74;100.00;98118.56;4993513;28;20614;-62
2024/01/03 12:49:25;;;;;;;5.73;2.73;;;;;;;11.76;100.00;98107.16;4990649;28;20327;-63
2024/01/03 12:51:51;;;;;;;9.03;2.00;;;;;;;11.72;100.00;98113.56;4974947;28;20227;-62
2024/01/03 12:54:16;;;;;;;7.77;2.33;;;;;;;11.70;100.00;98114.66;4999284;28;20195;-63
2024/01/03 12:56:42;;;;;;;9.20;2.37;;;;;;;11.70;100.00;98110.31;4993522;28;20584;-63
2024/01/03 12:59:07;;;;;;;8.93;2.80;;;;;;;11.69;100.00;98111.25;4994034;28;20186;-62
2024/01/03 13:01:33;;;;;;;8.67;2.30;;;;;;;11.67;100.00;98107.19;4985674;28;20223;-62
2024/01/03 13:03:58;;;;;;;8.63;2.33;;;;;;;11.56;100.00;98090.97;4996945;28;20215;-62
2024/01/03 13:06:23;;;;;;;4.03;2.00;;;;;;;11.66;100.00;98098.66;4992385;28;20194;-63
2024/01/03 13:08:49;;;;;;;6.20;2.07;;;;;;;11.60;100.00;98091.50;4993417;28;20550;-63
2024/01/03 13:11:14;;;;;;;7.87;1.90;;;;;;;11.60;100.00;98104.38;4992700;28;20231;-63
2024/01/03 13:13:39;;;;;;;6.43;2.20;;;;;;;11.68;100.00;98090.78;4991988;28;20183;-62
2024/01/03 13:16:05;;;;;;;8.60;2.17;;;;;;;11.55;100.00;98085.97;4993385;28;20194;-63